sensor_id;sensor_type;location;lat;lon;timestamp;temperature;humidity
14031;DHT22;7090;49.436;8.490;2023-09-19T00:01:34;17.00;99.90
14031;DHT22;7090;49.436;8.490;2023-09-19T00:04:00;17.10;99.90
14031;DHT22;7090;49.436;8.490;2023-09-19T00:06:29;17.00;99.90
14031;DHT22;7090;49.436;8.490;2023-09-19T00:08:57;17.00;99.90
14031;DHT22;7090;49.436;8.490;2023-09-19T00:11:24;16.90;99.90
14031;DHT22;7090;49.436;8.490;2023-09-19T00:13:51;16.90;99.90
14031;DHT22;7090;49.436;8.490;2023-09-19T00:16:17;16.90;99.90
14031;DHT22;7090;49.436;8.490;2023-09-19T00:18:44;16.90;99.90
14031;DHT22;7090;49.436;8.490;2023-09-19T00:21:10;17.00;99.90
14031;DHT22;7090;49.436;8.490;2023-09-19T00:23:35;17.00;99.90
14031;DHT22;7090;49.436;8.490;2023-09-19T00:26:01;17.10;99.90
14031;DHT22;7090;49.436;8.490;2023-09-19T00:28:27;17.00;99.90
14031;DHT22;7090;49.436;8.490;2023-09-19T00:30:53;17.00;99.90
14031;DHT22;7090;49.436;8.490;2023-09-19T00:33:21;16.90;99.90
14031;DHT22;7090;49.436;8.490;2023-09-19T00:35:50;17.00;99.90
14031;DHT22;7090;49.436;8.490;2023-09-19T00:38:17;17.00;99.90
14031;DHT22;7090;49.436;8.490;2023-09-19T00:40:45;16.90;99.90
14031;DHT22;7090;49.436;8.490;2023-09-19T00:43:11;16.90;99.90
14031;DHT22;7090;49.436;8.490;2023-09-19T00:45:37;16.90;99.90
14031;DHT22;7090;49.436;8.490;2023-09-19T00:48:08;16.90;99.90
14031;DHT22;7090;49.436;8.490;2023-09-19T00:50:35;16.90;99.90
14031;DHT22;7090;49.436;8.490;2023-09-19T00:53:01;16.90;99.90
14031;DHT22;7090;49.436;8.490;2023-09-19T00:55:29;17.00;99.90
14031;DHT22;7090;49.436;8.490;2023-09-19T00:57:56;17.00;99.90
14031;DHT22;7090;49.436;8.490;2023-09-19T01:00:22;17.00;99.90
14031;DHT22;7090;49.436;8.490;2023-09-19T01:02:49;17.00;99.90
14031;DHT22;7090;49.436;8.490;2023-09-19T01:05:14;17.00;99.90
14031;DHT22;7090;49.436;8.490;2023-09-19T01:07:41;17.00;99.90
14031;DHT22;7090;49.436;8.490;2023-09-19T01:10:09;17.00;99.90
14031;DHT22;7090;49.436;8.490;2023-09-19T01:12:59;17.00;99.90
14031;DHT22;7090;49.436;8.490;2023-09-19T01:15:55;17.00;99.90
14031;DHT22;7090;49.436;8.490;2023-09-19T01:31:51;17.10;99.90
14031;DHT22;7090;49.436;8.490;2023-09-19T01:34:19;17.20;99.90
14031;DHT22;7090;49.436;8.490;2023-09-19T01:36:46;17.20;99.90
14031;DHT22;7090;49.436;8.490;2023-09-19T01:39:12;17.20;99.90
14031;DHT22;7090;49.436;8.490;2023-09-19T01:44:24;17.20;99.90
14031;DHT22;7090;49.436;8.490;2023-09-19T01:46:52;17.30;99.90
14031;DHT22;7090;49.436;8.490;2023-09-19T01:49:48;17.30;99.90
14031;DHT22;7090;49.436;8.490;2023-09-19T01:52:15;17.30;99.90
14031;DHT22;7090;49.436;8.490;2023-09-19T01:55:05;17.30;99.90
14031;DHT22;7090;49.436;8.490;2023-09-19T01:57:40;17.30;99.90
14031;DHT22;7090;49.436;8.490;2023-09-19T02:00:10;17.30;99.90
14031;DHT22;7090;49.436;8.490;2023-09-19T02:02:43;17.40;99.90
14031;DHT22;7090;49.436;8.490;2023-09-19T02:05:10;17.30;99.90
14031;DHT22;7090;49.436;8.490;2023-09-19T02:07:36;17.30;99.90
14031;DHT22;7090;49.436;8.490;2023-09-19T02:10:04;17.40;99.90
14031;DHT22;7090;49.436;8.490;2023-09-19T02:12:31;17.40;99.90
14031;DHT22;7090;49.436;8.490;2023-09-19T02:14:58;17.40;99.90
14031;DHT22;7090;49.436;8.490;2023-09-19T02:17:24;17.40;99.90
14031;DHT22;7090;49.436;8.490;2023-09-19T02:19:55;17.50;99.90
14031;DHT22;7090;49.436;8.490;2023-09-19T02:22:21;17.50;99.90
14031;DHT22;7090;49.436;8.490;2023-09-19T02:24:48;17.50;99.90
14031;DHT22;7090;49.436;8.490;2023-09-19T02:27:14;17.50;99.90
14031;DHT22;7090;49.436;8.490;2023-09-19T02:29:42;17.50;99.90
14031;DHT22;7090;49.436;8.490;2023-09-19T02:32:07;17.50;99.90
14031;DHT22;7090;49.436;8.490;2023-09-19T02:34:35;17.50;99.90
14031;DHT22;7090;49.436;8.490;2023-09-19T02:37:05;17.50;99.90
14031;DHT22;7090;49.436;8.490;2023-09-19T02:39:32;17.50;99.90
14031;DHT22;7090;49.436;8.490;2023-09-19T02:41:57;17.50;99.90
14031;DHT22;7090;49.436;8.490;2023-09-19T02:44:23;17.50;99.90
14031;DHT22;7090;49.436;8.490;2023-09-19T02:46:49;17.50;99.90
14031;DHT22;7090;49.436;8.490;2023-09-19T02:49:16;17.40;99.90
14031;DHT22;7090;49.436;8.490;2023-09-19T02:51:44;17.40;99.90
14031;DHT22;7090;49.436;8.490;2023-09-19T02:54:10;17.40;99.90
14031;DHT22;7090;49.436;8.490;2023-09-19T02:56:36;17.40;99.90
14031;DHT22;7090;49.436;8.490;2023-09-19T02:59:02;17.30;99.90
14031;DHT22;7090;49.436;8.490;2023-09-19T03:01:28;17.30;99.90
14031;DHT22;7090;49.436;8.490;2023-09-19T03:03:54;17.30;99.90
14031;DHT22;7090;49.436;8.490;2023-09-19T03:06:20;17.30;99.90
14031;DHT22;7090;49.436;8.490;2023-09-19T03:08:47;17.20;99.90
14031;DHT22;7090;49.436;8.490;2023-09-19T03:11:14;17.20;99.90
14031;DHT22;7090;49.436;8.490;2023-09-19T03:13:40;17.10;99.90
14031;DHT22;7090;49.436;8.490;2023-09-19T03:16:08;17.10;99.90
14031;DHT22;7090;49.436;8.490;2023-09-19T03:18:36;17.00;99.90
14031;DHT22;7090;49.436;8.490;2023-09-19T03:21:02;17.00;99.90
14031;DHT22;7090;49.436;8.490;2023-09-19T03:23:28;16.90;99.90
14031;DHT22;7090;49.436;8.490;2023-09-19T03:25:55;16.90;99.90
14031;DHT22;7090;49.436;8.490;2023-09-19T03:28:22;16.90;99.90
14031;DHT22;7090;49.436;8.490;2023-09-19T03:31:05;16.90;99.90
14031;DHT22;7090;49.436;8.490;2023-09-19T03:33:32;16.90;99.90
14031;DHT22;7090;49.436;8.490;2023-09-19T03:35:58;16.90;99.90
14031;DHT22;7090;49.436;8.490;2023-09-19T03:38:27;17.00;99.90
14031;DHT22;7090;49.436;8.490;2023-09-19T03:40:56;17.00;99.90
14031;DHT22;7090;49.436;8.490;2023-09-19T03:43:21;17.00;99.90
14031;DHT22;7090;49.436;8.490;2023-09-19T03:45:47;17.00;99.90
14031;DHT22;7090;49.436;8.490;2023-09-19T03:48:14;17.00;99.90
14031;DHT22;7090;49.436;8.490;2023-09-19T03:50:39;17.00;99.90
14031;DHT22;7090;49.436;8.490;2023-09-19T03:53:05;17.10;99.90
14031;DHT22;7090;49.436;8.490;2023-09-19T03:55:32;17.00;99.90
14031;DHT22;7090;49.436;8.490;2023-09-19T03:58:01;17.00;99.90
14031;DHT22;7090;49.436;8.490;2023-09-19T04:00:26;17.00;99.90
14031;DHT22;7090;49.436;8.490;2023-09-19T04:02:53;17.00;99.90
14031;DHT22;7090;49.436;8.490;2023-09-19T04:05:19;17.00;99.90
14031;DHT22;7090;49.436;8.490;2023-09-19T04:07:44;16.90;99.90
14031;DHT22;7090;49.436;8.490;2023-09-19T04:10:10;16.80;99.90
14031;DHT22;7090;49.436;8.490;2023-09-19T04:12:40;16.90;99.90
14031;DHT22;7090;49.436;8.490;2023-09-19T04:15:06;16.80;99.90
14031;DHT22;7090;49.436;8.490;2023-09-19T04:17:32;16.90;99.90
14031;DHT22;7090;49.436;8.490;2023-09-19T04:20:00;16.90;99.90
14031;DHT22;7090;49.436;8.490;2023-09-19T04:22:26;16.80;99.90
14031;DHT22;7090;49.436;8.490;2023-09-19T04:24:51;16.70;99.90
14031;DHT22;7090;49.436;8.490;2023-09-19T04:27:17;16.80;99.90
14031;DHT22;7090;49.436;8.490;2023-09-19T04:29:44;16.80;99.90
14031;DHT22;7090;49.436;8.490;2023-09-19T04:32:09;16.70;99.90
14031;DHT22;7090;49.436;8.490;2023-09-19T04:34:35;16.70;99.90
14031;DHT22;7090;49.436;8.490;2023-09-19T04:37:02;16.70;99.90
14031;DHT22;7090;49.436;8.490;2023-09-19T04:39:29;16.70;99.90
14031;DHT22;7090;49.436;8.490;2023-09-19T04:41:55;16.50;99.90
14031;DHT22;7090;49.436;8.490;2023-09-19T04:44:20;16.50;99.90
14031;DHT22;7090;49.436;8.490;2023-09-19T04:46:46;16.50;99.90
14031;DHT22;7090;49.436;8.490;2023-09-19T04:49:12;16.50;99.90
14031;DHT22;7090;49.436;8.490;2023-09-19T04:51:38;16.40;99.90
14031;DHT22;7090;49.436;8.490;2023-09-19T04:54:05;16.30;99.90
14031;DHT22;7090;49.436;8.490;2023-09-19T04:56:31;16.30;99.90
14031;DHT22;7090;49.436;8.490;2023-09-19T04:58:57;16.40;99.90
14031;DHT22;7090;49.436;8.490;2023-09-19T05:01:24;16.40;99.90
14031;DHT22;7090;49.436;8.490;2023-09-19T05:03:50;16.30;99.90
14031;DHT22;7090;49.436;8.490;2023-09-19T05:06:22;16.30;99.90
14031;DHT22;7090;49.436;8.490;2023-09-19T05:08:49;16.30;99.90
14031;DHT22;7090;49.436;8.490;2023-09-19T05:11:21;16.20;99.90
14031;DHT22;7090;49.436;8.490;2023-09-19T05:13:48;16.10;99.90
14031;DHT22;7090;49.436;8.490;2023-09-19T05:16:16;16.00;99.90
14031;DHT22;7090;49.436;8.490;2023-09-19T05:18:41;15.90;99.90
14031;DHT22;7090;49.436;8.490;2023-09-19T05:21:07;15.90;99.90
14031;DHT22;7090;49.436;8.490;2023-09-19T05:23:33;16.00;99.90
14031;DHT22;7090;49.436;8.490;2023-09-19T05:25:59;15.90;99.90
14031;DHT22;7090;49.436;8.490;2023-09-19T05:28:26;16.00;99.90
14031;DHT22;7090;49.436;8.490;2023-09-19T05:30:52;16.20;99.90
14031;DHT22;7090;49.436;8.490;2023-09-19T05:33:21;16.40;99.90
14031;DHT22;7090;49.436;8.490;2023-09-19T05:35:50;16.50;99.90
14031;DHT22;7090;49.436;8.490;2023-09-19T05:38:15;16.60;99.90
14031;DHT22;7090;49.436;8.490;2023-09-19T05:40:45;16.70;99.90
14031;DHT22;7090;49.436;8.490;2023-09-19T05:43:10;16.70;99.90
14031;DHT22;7090;49.436;8.490;2023-09-19T05:45:36;16.70;99.90
14031;DHT22;7090;49.436;8.490;2023-09-19T05:48:10;16.60;99.90
14031;DHT22;7090;49.436;8.490;2023-09-19T05:50:37;16.50;99.90
14031;DHT22;7090;49.436;8.490;2023-09-19T05:53:02;16.50;99.90
14031;DHT22;7090;49.436;8.490;2023-09-19T05:55:29;16.50;99.90
14031;DHT22;7090;49.436;8.490;2023-09-19T05:57:55;16.50;99.90
14031;DHT22;7090;49.436;8.490;2023-09-19T06:00:22;16.50;99.90
14031;DHT22;7090;49.436;8.490;2023-09-19T06:02:55;16.60;99.90
14031;DHT22;7090;49.436;8.490;2023-09-19T06:05:23;16.70;99.90
14031;DHT22;7090;49.436;8.490;2023-09-19T06:07:49;16.70;99.90
14031;DHT22;7090;49.436;8.490;2023-09-19T06:10:15;16.60;99.90
14031;DHT22;7090;49.436;8.490;2023-09-19T06:12:42;16.70;99.90
14031;DHT22;7090;49.436;8.490;2023-09-19T06:15:09;16.80;99.90
14031;DHT22;7090;49.436;8.490;2023-09-19T06:17:41;16.70;99.90
14031;DHT22;7090;49.436;8.490;2023-09-19T06:20:07;16.80;99.90
14031;DHT22;7090;49.436;8.490;2023-09-19T06:22:41;16.80;99.90
14031;DHT22;7090;49.436;8.490;2023-09-19T06:25:08;16.80;99.90
14031;DHT22;7090;49.436;8.490;2023-09-19T06:27:36;16.90;99.90
14031;DHT22;7090;49.436;8.490;2023-09-19T06:30:02;17.00;99.90
14031;DHT22;7090;49.436;8.490;2023-09-19T06:32:28;17.10;99.90
14031;DHT22;7090;49.436;8.490;2023-09-19T06:34:54;17.10;99.90
14031;DHT22;7090;49.436;8.490;2023-09-19T06:37:20;17.20;99.90
14031;DHT22;7090;49.436;8.490;2023-09-19T06:39:47;17.30;99.90
14031;DHT22;7090;49.436;8.490;2023-09-19T06:42:15;17.20;99.90
14031;DHT22;7090;49.436;8.490;2023-09-19T06:44:42;17.00;99.90
14031;DHT22;7090;49.436;8.490;2023-09-19T06:47:08;17.00;99.90
14031;DHT22;7090;49.436;8.490;2023-09-19T06:49:36;17.10;99.90
14031;DHT22;7090;49.436;8.490;2023-09-19T06:52:01;17.10;99.90
14031;DHT22;7090;49.436;8.490;2023-09-19T06:54:28;17.20;99.90
14031;DHT22;7090;49.436;8.490;2023-09-19T06:56:57;17.20;99.90
14031;DHT22;7090;49.436;8.490;2023-09-19T06:59:24;17.20;99.90
14031;DHT22;7090;49.436;8.490;2023-09-19T07:01:50;17.20;99.90
14031;DHT22;7090;49.436;8.490;2023-09-19T07:04:16;17.20;99.90
14031;DHT22;7090;49.436;8.490;2023-09-19T07:06:44;17.40;99.90
14031;DHT22;7090;49.436;8.490;2023-09-19T07:09:15;17.50;99.90
14031;DHT22;7090;49.436;8.490;2023-09-19T07:11:41;17.60;99.90
14031;DHT22;7090;49.436;8.490;2023-09-19T07:14:06;17.80;99.90
14031;DHT22;7090;49.436;8.490;2023-09-19T07:16:32;17.90;99.90
14031;DHT22;7090;49.436;8.490;2023-09-19T07:18:57;18.20;99.90
14031;DHT22;7090;49.436;8.490;2023-09-19T07:21:23;18.20;99.90
14031;DHT22;7090;49.436;8.490;2023-09-19T07:23:49;18.30;99.90
14031;DHT22;7090;49.436;8.490;2023-09-19T07:26:16;18.20;99.90
14031;DHT22;7090;49.436;8.490;2023-09-19T07:28:41;18.20;99.90
14031;DHT22;7090;49.436;8.490;2023-09-19T07:31:07;18.30;99.90
14031;DHT22;7090;49.436;8.490;2023-09-19T07:33:35;18.40;99.90
14031;DHT22;7090;49.436;8.490;2023-09-19T07:36:01;18.50;99.90
14031;DHT22;7090;49.436;8.490;2023-09-19T07:38:27;18.50;99.90
14031;DHT22;7090;49.436;8.490;2023-09-19T07:40:53;18.50;99.90
14031;DHT22;7090;49.436;8.490;2023-09-19T07:43:18;19.00;99.90
14031;DHT22;7090;49.436;8.490;2023-09-19T07:45:44;19.10;99.90
14031;DHT22;7090;49.436;8.490;2023-09-19T07:48:09;19.10;99.90
14031;DHT22;7090;49.436;8.490;2023-09-19T07:50:40;18.90;99.90
14031;DHT22;7090;49.436;8.490;2023-09-19T07:53:08;19.20;99.90
14031;DHT22;7090;49.436;8.490;2023-09-19T07:55:34;19.10;99.90
14031;DHT22;7090;49.436;8.490;2023-09-19T07:57:59;19.60;99.90
14031;DHT22;7090;49.436;8.490;2023-09-19T08:00:26;20.10;99.90
14031;DHT22;7090;49.436;8.490;2023-09-19T08:02:51;20.20;99.90
14031;DHT22;7090;49.436;8.490;2023-09-19T08:05:19;20.20;99.90
14031;DHT22;7090;49.436;8.490;2023-09-19T08:07:46;19.40;1.00
14031;DHT22;7090;49.436;8.490;2023-09-19T08:10:14;19.40;1.00
14031;DHT22;7090;49.436;8.490;2023-09-19T08:12:42;19.80;1.00
14031;DHT22;7090;49.436;8.490;2023-09-19T08:15:18;19.90;1.00
14031;DHT22;7090;49.436;8.490;2023-09-19T08:17:45;19.90;1.00
14031;DHT22;7090;49.436;8.490;2023-09-19T08:20:11;19.60;1.00
14031;DHT22;7090;49.436;8.490;2023-09-19T08:22:47;19.50;1.00
14031;DHT22;7090;49.436;8.490;2023-09-19T08:25:15;19.80;1.00
14031;DHT22;7090;49.436;8.490;2023-09-19T08:27:44;20.00;1.00
14031;DHT22;7090;49.436;8.490;2023-09-19T08:30:17;19.90;1.00
14031;DHT22;7090;49.436;8.490;2023-09-19T08:32:43;19.60;99.90
14031;DHT22;7090;49.436;8.490;2023-09-19T08:35:13;19.50;1.00
14031;DHT22;7090;49.436;8.490;2023-09-19T08:37:39;19.30;1.00
14031;DHT22;7090;49.436;8.490;2023-09-19T08:40:05;19.50;1.00
14031;DHT22;7090;49.436;8.490;2023-09-19T08:42:51;19.70;1.00
14031;DHT22;7090;49.436;8.490;2023-09-19T08:45:17;20.00;99.90
14031;DHT22;7090;49.436;8.490;2023-09-19T08:47:50;20.20;1.00
14031;DHT22;7090;49.436;8.490;2023-09-19T08:50:28;19.60;1.00
14031;DHT22;7090;49.436;8.490;2023-09-19T08:52:55;19.60;22.40
14031;DHT22;7090;49.436;8.490;2023-09-19T08:55:27;19.80;99.90
14031;DHT22;7090;49.436;8.490;2023-09-19T08:58:03;19.90;99.90
14031;DHT22;7090;49.436;8.490;2023-09-19T09:00:30;19.90;99.90
14031;DHT22;7090;49.436;8.490;2023-09-19T09:02:57;20.00;99.90
14031;DHT22;7090;49.436;8.490;2023-09-19T09:05:24;20.10;1.00
14031;DHT22;7090;49.436;8.490;2023-09-19T09:07:50;20.00;1.00
14031;DHT22;7090;49.436;8.490;2023-09-19T09:10:18;19.70;1.00
14031;DHT22;7090;49.436;8.490;2023-09-19T09:12:43;19.50;1.00
14031;DHT22;7090;49.436;8.490;2023-09-19T09:15:09;19.70;1.00
14031;DHT22;7090;49.436;8.490;2023-09-19T09:17:38;19.70;1.00
14031;DHT22;7090;49.436;8.490;2023-09-19T09:20:03;20.10;1.00
14031;DHT22;7090;49.436;8.490;2023-09-19T09:22:33;20.10;99.90
14031;DHT22;7090;49.436;8.490;2023-09-19T09:24:59;20.20;1.00
14031;DHT22;7090;49.436;8.490;2023-09-19T09:27:29;20.00;1.00
14031;DHT22;7090;49.436;8.490;2023-09-19T09:29:54;20.00;1.00
14031;DHT22;7090;49.436;8.490;2023-09-19T09:32:21;20.10;1.00
14031;DHT22;7090;49.436;8.490;2023-09-19T09:34:53;20.20;1.00
14031;DHT22;7090;49.436;8.490;2023-09-19T09:37:19;20.50;20.40
14031;DHT22;7090;49.436;8.490;2023-09-19T09:40:01;20.70;99.90
14031;DHT22;7090;49.436;8.490;2023-09-19T09:42:42;20.00;1.00
14031;DHT22;7090;49.436;8.490;2023-09-19T09:45:23;20.20;99.90
14031;DHT22;7090;49.436;8.490;2023-09-19T09:47:58;19.80;1.00
14031;DHT22;7090;49.436;8.490;2023-09-19T09:53:25;21.00;99.90
14031;DHT22;7090;49.436;8.490;2023-09-19T09:56:05;20.10;99.90
14031;DHT22;7090;49.436;8.490;2023-09-19T10:01:14;20.60;1.00
14031;DHT22;7090;49.436;8.490;2023-09-19T10:03:43;20.10;1.00
14031;DHT22;7090;49.436;8.490;2023-09-19T10:06:14;20.30;1.00
14031;DHT22;7090;49.436;8.490;2023-09-19T10:12:16;20.30;1.00
14031;DHT22;7090;49.436;8.490;2023-09-19T10:14:44;20.20;1.00
14031;DHT22;7090;49.436;8.490;2023-09-19T10:17:13;20.20;1.00
14031;DHT22;7090;49.436;8.490;2023-09-19T10:19:55;20.70;99.90
14031;DHT22;7090;49.436;8.490;2023-09-19T10:22:24;21.20;1.00
14031;DHT22;7090;49.436;8.490;2023-09-19T10:24:53;21.10;1.00
14031;DHT22;7090;49.436;8.490;2023-09-19T10:27:20;21.10;99.90
14031;DHT22;7090;49.436;8.490;2023-09-19T10:29:51;21.10;21.20
14031;DHT22;7090;49.436;8.490;2023-09-19T10:32:22;21.10;1.00
14031;DHT22;7090;49.436;8.490;2023-09-19T10:34:49;21.20;1.00
14031;DHT22;7090;49.436;8.490;2023-09-19T10:37:16;20.90;1.00
14031;DHT22;7090;49.436;8.490;2023-09-19T10:39:46;21.50;1.00
14031;DHT22;7090;49.436;8.490;2023-09-19T10:42:16;21.90;99.90
14031;DHT22;7090;49.436;8.490;2023-09-19T10:44:45;22.20;11.50
14031;DHT22;7090;49.436;8.490;2023-09-19T10:47:13;21.90;1.00
14031;DHT22;7090;49.436;8.490;2023-09-19T10:49:46;22.50;1.00
14031;DHT22;7090;49.436;8.490;2023-09-19T10:52:14;23.00;99.90
14031;DHT22;7090;49.436;8.490;2023-09-19T10:54:47;22.90;1.00
14031;DHT22;7090;49.436;8.490;2023-09-19T10:57:21;22.40;1.00
14031;DHT22;7090;49.436;8.490;2023-09-19T11:00:03;22.80;1.00
14031;DHT22;7090;49.436;8.490;2023-09-19T11:05:40;22.40;1.00
14031;DHT22;7090;49.436;8.490;2023-09-19T11:08:10;22.50;1.00
14031;DHT22;7090;49.436;8.490;2023-09-19T11:10:50;22.20;1.00
14031;DHT22;7090;49.436;8.490;2023-09-19T11:13:27;22.30;1.00
14031;DHT22;7090;49.436;8.490;2023-09-19T11:26:47;21.90;99.90
14031;DHT22;7090;49.436;8.490;2023-09-19T11:29:31;21.90;99.90
14031;DHT22;7090;49.436;8.490;2023-09-19T11:31:57;22.30;99.90
14031;DHT22;7090;49.436;8.490;2023-09-19T11:39:39;23.00;99.90
14031;DHT22;7090;49.436;8.490;2023-09-19T11:42:44;22.80;99.90
14031;DHT22;7090;49.436;8.490;2023-09-19T11:48:15;23.00;99.90
14031;DHT22;7090;49.436;8.490;2023-09-19T11:50:45;22.90;1.00
14031;DHT22;7090;49.436;8.490;2023-09-19T11:53:12;22.70;23.80
14031;DHT22;7090;49.436;8.490;2023-09-19T11:55:39;22.70;15.50
14031;DHT22;7090;49.436;8.490;2023-09-19T11:58:09;22.90;1.00
14031;DHT22;7090;49.436;8.490;2023-09-19T12:00:38;23.30;1.00
14031;DHT22;7090;49.436;8.490;2023-09-19T12:03:10;22.90;1.00
14031;DHT22;7090;49.436;8.490;2023-09-19T12:05:37;22.90;1.00
14031;DHT22;7090;49.436;8.490;2023-09-19T12:08:04;22.90;1.00
14031;DHT22;7090;49.436;8.490;2023-09-19T12:10:33;22.90;1.00
14031;DHT22;7090;49.436;8.490;2023-09-19T12:12:58;22.90;1.00
14031;DHT22;7090;49.436;8.490;2023-09-19T12:15:28;23.20;1.00
14031;DHT22;7090;49.436;8.490;2023-09-19T12:18:00;22.90;1.00
14031;DHT22;7090;49.436;8.490;2023-09-19T12:20:41;23.00;1.00
14031;DHT22;7090;49.436;8.490;2023-09-19T12:23:13;23.30;1.00
14031;DHT22;7090;49.436;8.490;2023-09-19T12:25:43;23.10;1.00
14031;DHT22;7090;49.436;8.490;2023-09-19T12:28:17;22.90;1.00
14031;DHT22;7090;49.436;8.490;2023-09-19T12:30:43;22.90;1.00
14031;DHT22;7090;49.436;8.490;2023-09-19T12:33:16;22.80;1.00
14031;DHT22;7090;49.436;8.490;2023-09-19T12:35:45;22.70;1.00
14031;DHT22;7090;49.436;8.490;2023-09-19T12:38:10;22.90;1.00
14031;DHT22;7090;49.436;8.490;2023-09-19T12:40:38;22.40;1.00
14031;DHT22;7090;49.436;8.490;2023-09-19T12:43:08;22.40;1.00
14031;DHT22;7090;49.436;8.490;2023-09-19T12:45:35;22.70;1.00
14031;DHT22;7090;49.436;8.490;2023-09-19T12:48:24;23.40;1.00
14031;DHT22;7090;49.436;8.490;2023-09-19T12:51:12;23.90;1.00
14031;DHT22;7090;49.436;8.490;2023-09-19T12:53:43;23.60;1.00
14031;DHT22;7090;49.436;8.490;2023-09-19T12:56:10;23.40;1.00
14031;DHT22;7090;49.436;8.490;2023-09-19T12:58:52;23.20;1.00
14031;DHT22;7090;49.436;8.490;2023-09-19T13:01:22;23.30;1.00
14031;DHT22;7090;49.436;8.490;2023-09-19T13:06:48;23.00;1.00
14031;DHT22;7090;49.436;8.490;2023-09-19T13:09:15;22.90;1.00
14031;DHT22;7090;49.436;8.490;2023-09-19T13:11:42;23.20;1.00
14031;DHT22;7090;49.436;8.490;2023-09-19T13:14:21;23.10;1.00
14031;DHT22;7090;49.436;8.490;2023-09-19T13:17:03;23.10;1.00
14031;DHT22;7090;49.436;8.490;2023-09-19T13:19:45;24.00;1.00
14031;DHT22;7090;49.436;8.490;2023-09-19T13:22:45;24.70;99.90
14031;DHT22;7090;49.436;8.490;2023-09-19T13:25:18;24.10;99.90
14031;DHT22;7090;49.436;8.490;2023-09-19T13:27:45;24.00;99.90
14031;DHT22;7090;49.436;8.490;2023-09-19T13:30:14;24.40;99.90
14031;DHT22;7090;49.436;8.490;2023-09-19T13:32:40;24.20;99.90
14031;DHT22;7090;49.436;8.490;2023-09-19T13:35:08;24.10;99.90
14031;DHT22;7090;49.436;8.490;2023-09-19T13:37:39;24.10;99.90
14031;DHT22;7090;49.436;8.490;2023-09-19T13:40:12;23.50;99.90
14031;DHT22;7090;49.436;8.490;2023-09-19T13:42:39;23.30;99.90
14031;DHT22;7090;49.436;8.490;2023-09-19T13:45:05;23.60;99.90
14031;DHT22;7090;49.436;8.490;2023-09-19T13:47:31;23.30;99.90
14031;DHT22;7090;49.436;8.490;2023-09-19T13:50:01;23.80;99.90
14031;DHT22;7090;49.436;8.490;2023-09-19T13:52:29;23.90;99.90
14031;DHT22;7090;49.436;8.490;2023-09-19T13:54:56;23.90;99.90
14031;DHT22;7090;49.436;8.490;2023-09-19T13:57:23;23.30;99.90
14031;DHT22;7090;49.436;8.490;2023-09-19T13:59:49;23.50;99.90
14031;DHT22;7090;49.436;8.490;2023-09-19T14:02:14;23.50;99.90
14031;DHT22;7090;49.436;8.490;2023-09-19T14:04:40;23.50;99.90
14031;DHT22;7090;49.436;8.490;2023-09-19T14:07:06;23.70;99.90
14031;DHT22;7090;49.436;8.490;2023-09-19T14:09:33;23.60;99.90
14031;DHT22;7090;49.436;8.490;2023-09-19T14:11:59;23.90;99.90
14031;DHT22;7090;49.436;8.490;2023-09-19T14:14:24;23.70;99.90
14031;DHT22;7090;49.436;8.490;2023-09-19T14:16:50;23.60;99.90
14031;DHT22;7090;49.436;8.490;2023-09-19T14:19:17;23.60;99.90
14031;DHT22;7090;49.436;8.490;2023-09-19T14:21:43;23.60;99.90
14031;DHT22;7090;49.436;8.490;2023-09-19T14:24:09;23.40;99.90
14031;DHT22;7090;49.436;8.490;2023-09-19T14:26:35;23.80;99.90
14031;DHT22;7090;49.436;8.490;2023-09-19T14:29:01;23.60;99.90
14031;DHT22;7090;49.436;8.490;2023-09-19T14:31:27;24.10;99.90
14031;DHT22;7090;49.436;8.490;2023-09-19T14:33:57;24.70;99.90
14031;DHT22;7090;49.436;8.490;2023-09-19T14:36:24;24.40;99.90
14031;DHT22;7090;49.436;8.490;2023-09-19T14:38:52;23.90;99.90
14031;DHT22;7090;49.436;8.490;2023-09-19T14:41:25;24.40;99.90
14031;DHT22;7090;49.436;8.490;2023-09-19T14:43:51;24.60;99.90
14031;DHT22;7090;49.436;8.490;2023-09-19T14:46:16;24.60;99.90
14031;DHT22;7090;49.436;8.490;2023-09-19T14:48:43;24.50;99.90
14031;DHT22;7090;49.436;8.490;2023-09-19T14:51:09;23.50;99.90
14031;DHT22;7090;49.436;8.490;2023-09-19T14:53:36;23.20;99.90
14031;DHT22;7090;49.436;8.490;2023-09-19T14:56:06;23.20;99.90
14031;DHT22;7090;49.436;8.490;2023-09-19T14:58:33;23.30;99.90
14031;DHT22;7090;49.436;8.490;2023-09-19T15:01:16;22.90;99.90
14031;DHT22;7090;49.436;8.490;2023-09-19T15:03:42;23.10;99.90
14031;DHT22;7090;49.436;8.490;2023-09-19T15:06:12;23.40;99.90
14031;DHT22;7090;49.436;8.490;2023-09-19T15:08:40;23.30;99.90
14031;DHT22;7090;49.436;8.490;2023-09-19T15:11:08;23.30;99.90
14031;DHT22;7090;49.436;8.490;2023-09-19T15:13:34;23.60;99.90
14031;DHT22;7090;49.436;8.490;2023-09-19T15:16:05;23.40;99.90
14031;DHT22;7090;49.436;8.490;2023-09-19T15:18:34;23.30;99.90
14031;DHT22;7090;49.436;8.490;2023-09-19T15:21:02;23.70;99.90
14031;DHT22;7090;49.436;8.490;2023-09-19T15:23:39;23.60;99.90
14031;DHT22;7090;49.436;8.490;2023-09-19T15:26:05;23.20;99.90
14031;DHT22;7090;49.436;8.490;2023-09-19T15:28:32;23.00;99.90
14031;DHT22;7090;49.436;8.490;2023-09-19T15:31:03;23.10;99.90
14031;DHT22;7090;49.436;8.490;2023-09-19T15:33:29;23.00;99.90
14031;DHT22;7090;49.436;8.490;2023-09-19T15:39:08;23.00;99.90
14031;DHT22;7090;49.436;8.490;2023-09-19T15:41:40;22.90;99.90
14031;DHT22;7090;49.436;8.490;2023-09-19T15:44:15;22.90;99.90
14031;DHT22;7090;49.436;8.490;2023-09-19T15:46:42;22.80;99.90
14031;DHT22;7090;49.436;8.490;2023-09-19T15:49:07;23.10;99.90
14031;DHT22;7090;49.436;8.490;2023-09-19T15:51:33;23.30;99.90
14031;DHT22;7090;49.436;8.490;2023-09-19T15:54:01;23.40;99.90
14031;DHT22;7090;49.436;8.490;2023-09-19T15:56:27;23.30;99.90
14031;DHT22;7090;49.436;8.490;2023-09-19T15:58:54;23.50;99.90
14031;DHT22;7090;49.436;8.490;2023-09-19T16:01:21;23.50;99.90
14031;DHT22;7090;49.436;8.490;2023-09-19T16:03:51;23.20;99.90
14031;DHT22;7090;49.436;8.490;2023-09-19T16:06:25;23.10;99.90
14031;DHT22;7090;49.436;8.490;2023-09-19T16:08:56;23.40;99.90
14031;DHT22;7090;49.436;8.490;2023-09-19T16:11:24;23.20;99.90
14031;DHT22;7090;49.436;8.490;2023-09-19T16:13:51;23.10;99.90
14031;DHT22;7090;49.436;8.490;2023-09-19T16:16:18;23.00;99.90
14031;DHT22;7090;49.436;8.490;2023-09-19T16:18:47;23.10;99.90
14031;DHT22;7090;49.436;8.490;2023-09-19T16:21:26;23.10;99.90
14031;DHT22;7090;49.436;8.490;2023-09-19T16:23:53;22.90;99.90
14031;DHT22;7090;49.436;8.490;2023-09-19T16:26:19;22.80;99.90
14031;DHT22;7090;49.436;8.490;2023-09-19T16:28:47;22.70;99.90
14031;DHT22;7090;49.436;8.490;2023-09-19T16:31:14;22.60;99.90
14031;DHT22;7090;49.436;8.490;2023-09-19T16:33:44;22.30;99.90
14031;DHT22;7090;49.436;8.490;2023-09-19T16:36:13;22.30;99.90
14031;DHT22;7090;49.436;8.490;2023-09-19T16:38:42;22.30;1.00
14031;DHT22;7090;49.436;8.490;2023-09-19T16:41:09;22.30;1.00
14031;DHT22;7090;49.436;8.490;2023-09-19T16:43:34;22.10;1.00
14031;DHT22;7090;49.436;8.490;2023-09-19T16:46:05;22.00;1.00
14031;DHT22;7090;49.436;8.490;2023-09-19T16:48:34;22.00;1.00
14031;DHT22;7090;49.436;8.490;2023-09-19T16:51:02;22.00;1.00
14031;DHT22;7090;49.436;8.490;2023-09-19T16:53:29;21.90;1.00